createdAt,value
2018-05-27T03:47:53.563Z,10
2018-05-27T03:48:13.762Z,10
2018-05-27T03:48:33.980Z,10
2018-05-27T03:48:54.157Z,10
2018-05-27T03:49:14.384Z,10
2018-05-27T03:49:34.632Z,10
2018-05-27T03:49:54.865Z,10
2018-05-27T03:50:15.024Z,10
2018-05-27T03:50:35.201Z,10
2018-05-27T03:50:55.422Z,10
2018-05-27T03:51:15.664Z,10
2018-05-27T03:51:35.865Z,10
2018-05-27T03:51:56.061Z,10
2018-05-27T03:52:16.319Z,10
2018-05-27T03:52:36.555Z,10
2018-05-27T03:52:56.783Z,10
2018-05-27T04:02:28.020Z,15
2018-05-27T04:02:48.271Z,15
2018-05-27T04:03:08.463Z,15
2018-05-27T04:03:28.663Z,15
2018-05-27T04:03:48.909Z,15
2018-05-27T04:04:09.125Z,20
2018-05-27T04:04:29.294Z,20
2018-05-27T04:04:49.421Z,20
2018-05-27T04:05:09.635Z,20
2018-05-27T04:05:29.930Z,20
2018-05-27T04:05:50.144Z,20
2018-05-27T04:06:10.325Z,20
2018-05-27T04:06:30.506Z,20
2018-05-27T04:06:50.681Z,20
2018-05-27T04:07:50.713Z,20
2018-05-27T04:08:10.920Z,20
2018-05-27T04:08:31.125Z,20
2018-05-27T04:08:51.290Z,20
2018-05-27T04:09:11.496Z,20
2018-05-27T04:09:31.715Z,20
2018-05-27T04:10:59.264Z,20
2018-05-27T04:11:19.776Z,20
2018-05-27T04:11:39.965Z,20
2018-05-27T04:12:00.154Z,20
2018-05-27T04:12:20.327Z,20
2018-05-27T04:12:40.547Z,20
2018-05-27T04:13:00.719Z,20
2018-05-27T04:13:20.893Z,20
2018-05-27T04:13:41.095Z,20
2018-05-27T04:14:01.264Z,20
2018-05-27T04:16:21.249Z,25
2018-05-27T04:16:41.440Z,25
2018-05-27T04:17:48.013Z,20
2018-05-27T04:18:08.172Z,20
2018-05-27T04:19:14.636Z,20
2018-05-27T04:19:34.849Z,20
2018-05-27T04:20:28.968Z,25
2018-05-27T04:20:49.153Z,25
2018-05-27T04:21:09.335Z,25
2018-05-27T04:21:29.489Z,25
2018-05-27T04:21:49.653Z,25
2018-05-27T04:22:09.841Z,25
2018-05-27T04:22:29.977Z,25
2018-05-27T04:22:50.126Z,25
2018-05-27T04:23:10.276Z,25
2018-05-27T04:23:30.455Z,25
2018-05-27T04:25:03.241Z,25
2018-05-27T04:25:23.372Z,25
2018-05-27T04:25:43.514Z,30
2018-05-27T04:26:03.675Z,30
2018-05-27T04:27:05.411Z,30
2018-05-27T04:27:25.591Z,30
2018-05-27T04:28:22.686Z,30
2018-05-27T04:28:43.057Z,30
2018-05-27T04:29:03.238Z,30
2018-05-27T04:29:23.420Z,30
2018-05-27T04:29:43.583Z,30
2018-05-27T04:30:03.751Z,30
2018-05-27T04:30:23.910Z,30
2018-05-27T04:30:44.094Z,30
2018-05-27T04:31:48.935Z,30
2018-05-27T04:32:09.109Z,30
2018-05-27T04:32:29.283Z,30
2018-05-27T04:33:57.728Z,30
2018-05-27T04:35:47.250Z,25
2018-05-27T04:36:32.282Z,25
2018-05-27T04:36:52.498Z,25
2018-05-27T04:37:43.192Z,25
2018-05-27T04:38:03.374Z,25
2018-05-27T04:38:23.548Z,25
2018-05-27T04:38:43.723Z,25
2018-05-27T04:39:32.899Z,25
2018-05-27T04:40:24.491Z,25
2018-05-27T04:40:44.656Z,30
2018-05-27T04:41:04.886Z,30
2018-05-27T04:41:25.171Z,30
2018-05-27T04:41:45.381Z,30
2018-05-27T04:42:05.627Z,30
2018-05-27T04:42:25.842Z,30
2018-05-27T04:42:46.082Z,30
2018-05-27T04:43:06.381Z,30
2018-05-27T04:43:26.665Z,30
2018-05-27T04:43:46.951Z,30
2018-05-27T04:44:07.128Z,30
2018-05-27T04:45:01.875Z,30
2018-05-27T04:45:22.013Z,30
2018-05-27T04:46:19.220Z,30
2018-05-27T04:46:39.497Z,30
2018-05-27T04:47:23.688Z,30
2018-05-27T04:47:43.868Z,30
2018-05-27T04:48:34.776Z,30
2018-05-27T04:48:54.948Z,30
2018-05-27T04:49:39.226Z,30
2018-05-27T04:49:59.432Z,30
2018-05-27T04:50:43.726Z,30
2018-05-27T04:51:35.307Z,30
2018-05-27T04:56:44.948Z,30
2018-05-27T04:58:08.755Z,30
2018-05-27T04:59:06.946Z,30
2018-05-27T04:59:27.165Z,30
2018-05-27T05:00:11.380Z,30
2018-05-27T05:00:31.631Z,30
2018-05-27T05:01:15.940Z,30
2018-05-27T05:01:36.129Z,30
2018-05-27T05:02:20.486Z,35
2018-05-27T05:02:40.815Z,35
2018-05-27T05:03:37.791Z,35
2018-05-27T05:03:57.961Z,35
2018-05-27T05:04:18.173Z,35
2018-05-27T05:04:38.414Z,35
2018-05-27T05:04:58.639Z,35
2018-05-27T05:05:18.841Z,35
2018-05-27T05:05:39.034Z,35
2018-05-27T05:05:59.192Z,35
2018-05-27T05:06:19.450Z,35
2018-05-27T05:06:39.629Z,35
2018-05-27T05:06:59.836Z,35
2018-05-27T05:07:20.088Z,35
2018-05-27T05:07:40.304Z,35
2018-05-27T05:08:00.536Z,35
2018-05-27T05:08:20.713Z,35
2018-05-27T05:08:40.867Z,35
2018-05-27T05:09:01.093Z,35
2018-05-27T05:09:21.319Z,35
2018-05-27T05:09:41.563Z,35
2018-05-27T05:10:01.770Z,40
2018-05-27T05:10:21.957Z,40
2018-05-27T05:10:42.130Z,40
2018-05-27T05:11:02.315Z,40
2018-05-27T05:11:22.499Z,40
2018-05-27T05:11:42.705Z,40
2018-05-27T05:12:02.958Z,40
2018-05-27T05:12:23.233Z,40
2018-05-27T05:12:43.480Z,40
2018-05-27T05:13:03.640Z,40
2018-05-27T05:13:23.843Z,40
2018-05-27T05:13:44.106Z,40
2018-05-27T05:14:04.365Z,40
2018-05-27T05:14:24.563Z,40
2018-05-27T05:14:44.726Z,40
2018-05-27T05:15:04.985Z,40
2018-05-27T05:15:25.176Z,40
2018-05-27T05:15:45.357Z,40
2018-05-27T05:16:05.491Z,40
2018-05-27T05:16:25.754Z,40
2018-05-27T05:16:45.948Z,40
2018-05-27T05:17:25.731Z,40
2018-05-27T05:17:45.913Z,35
2018-05-27T05:18:06.095Z,35
2018-05-27T05:18:26.285Z,40
2018-05-27T05:18:46.425Z,35
2018-05-27T05:19:06.597Z,40
2018-05-27T05:19:26.724Z,40
2018-05-27T05:19:46.919Z,40
2018-05-27T05:20:07.127Z,40
2018-05-27T05:20:27.388Z,40
2018-05-27T05:20:47.596Z,40
2018-05-27T05:21:07.747Z,40
2018-05-27T05:21:27.897Z,40
2018-05-27T05:21:48.075Z,40
2018-05-27T05:22:08.248Z,40
2018-05-27T05:22:28.493Z,40
2018-05-27T05:22:48.684Z,40
2018-05-27T05:23:08.909Z,40
2018-05-27T05:23:29.087Z,40
2018-05-27T05:23:49.283Z,40
2018-05-27T05:24:09.453Z,40
2018-05-27T05:24:29.612Z,40
2018-05-27T05:24:49.778Z,35
2018-05-27T05:25:09.939Z,35
2018-05-27T05:25:30.083Z,35
2018-05-27T05:25:50.278Z,35
2018-05-27T05:26:10.433Z,35
2018-05-27T05:26:30.626Z,35
2018-05-27T05:26:50.845Z,35
2018-05-27T05:29:45.624Z,35
2018-05-27T05:31:09.585Z,40
2018-05-27T05:32:01.164Z,40
2018-05-27T05:32:21.297Z,40
2018-05-27T05:32:41.480Z,40
2018-05-27T05:33:01.636Z,40
2018-05-27T05:33:21.807Z,40
2018-05-27T05:33:41.994Z,40
2018-05-27T05:34:02.179Z,40
2018-05-27T05:34:22.364Z,40
2018-05-27T05:34:42.501Z,40
2018-05-27T05:35:02.694Z,40
2018-05-27T05:35:22.884Z,40
2018-05-27T05:35:43.139Z,40
2018-05-27T05:36:03.339Z,40
2018-05-27T05:36:23.592Z,40
2018-05-27T05:36:43.774Z,40
2018-05-27T05:37:03.969Z,40
2018-05-27T05:37:24.137Z,40
2018-05-27T05:37:44.281Z,40
2018-05-27T05:38:04.449Z,40
2018-05-27T05:38:24.625Z,40
2018-05-27T05:38:44.772Z,40
2018-05-27T05:39:04.947Z,40
2018-05-27T05:39:25.146Z,40
2018-05-27T05:39:45.295Z,40
2018-05-27T05:40:05.462Z,40
2018-05-27T05:40:25.622Z,45
2018-05-27T05:40:45.802Z,45
2018-05-27T05:41:06.044Z,40
2018-05-27T05:41:26.245Z,45
2018-05-27T05:41:46.498Z,40
2018-05-27T05:42:06.653Z,40
2018-05-27T05:42:26.806Z,40
2018-05-27T05:42:47.023Z,40
2018-05-27T05:43:07.230Z,40
2018-05-27T05:43:27.391Z,40
2018-05-27T05:43:47.609Z,40
2018-05-27T05:44:07.692Z,40
2018-05-27T05:44:27.872Z,40
2018-05-27T05:45:21.877Z,35
2018-05-27T06:00:07.365Z,25
2018-05-27T06:01:23.408Z,30
2018-05-27T06:02:47.340Z,30
2018-05-27T06:03:07.559Z,30
2018-05-27T06:03:51.892Z,30
2018-05-27T06:04:12.077Z,30
2018-05-27T06:04:32.233Z,30
2018-05-27T06:05:28.599Z,30
2018-05-27T06:05:48.765Z,30
2018-05-27T06:06:08.932Z,30
2018-05-27T06:06:29.279Z,30
2018-05-27T06:06:49.516Z,30
2018-05-27T06:07:32.211Z,30
2018-05-27T06:07:52.419Z,30
2018-05-27T06:08:12.609Z,30
2018-05-27T06:08:32.814Z,30
2018-05-27T06:08:52.979Z,30
2018-05-27T06:09:13.160Z,30
2018-05-27T06:09:33.373Z,30
2018-05-27T06:09:53.526Z,35
2018-05-27T06:10:13.707Z,35
2018-05-27T06:10:33.874Z,35
2018-05-27T06:10:54.001Z,35
2018-05-27T06:11:14.197Z,35
2018-05-27T06:11:34.370Z,35
2018-05-27T06:11:54.635Z,35
2018-05-27T06:12:14.820Z,35
2018-05-27T06:12:35.008Z,35
2018-05-27T06:12:55.203Z,35
2018-05-27T06:13:15.426Z,35
2018-05-27T06:13:35.667Z,35
2018-05-27T06:13:55.794Z,35
2018-05-27T06:14:15.945Z,35
2018-05-27T06:14:36.104Z,35
2018-05-27T06:14:56.290Z,35
2018-05-27T06:16:01.800Z,40
2018-05-27T06:16:22.008Z,40
2018-05-27T06:16:42.202Z,35
2018-05-27T06:17:02.422Z,35
2018-05-27T06:17:22.610Z,35
2018-05-27T06:17:42.845Z,35
2018-05-27T06:18:03.002Z,35
2018-05-27T06:18:23.240Z,35
2018-05-27T06:18:43.434Z,35
2018-05-27T07:14:26.888Z,15
2018-05-27T07:16:09.667Z,15
2018-05-27T07:19:44.358Z,15
2018-05-27T07:21:35.485Z,15
2018-05-27T07:23:23.601Z,20
2018-05-27T07:23:43.823Z,20
2018-05-27T07:25:20.928Z,20
2018-05-27T07:26:23.488Z,20
2018-05-27T07:27:44.425Z,20
2018-05-27T07:28:04.691Z,20
2018-05-27T07:29:28.964Z,25
2018-05-27T07:30:24.167Z,25
2018-05-27T07:31:16.395Z,25
2018-05-27T07:32:00.673Z,25
2018-05-27T07:32:20.993Z,25
2018-05-27T07:33:11.822Z,25
2018-05-27T07:34:03.588Z,25
2018-05-27T07:34:23.923Z,30
2018-05-27T07:35:14.523Z,30
2018-05-27T07:35:34.976Z,30
2018-05-27T07:36:24.215Z,30
2018-05-27T07:36:44.492Z,30
2018-05-27T07:37:04.797Z,30
2018-05-27T07:37:25.090Z,30
2018-05-27T07:37:45.391Z,30
2018-05-27T07:38:05.634Z,30
2018-05-27T07:38:25.876Z,30
2018-05-27T07:38:46.099Z,30
2018-05-27T07:39:06.329Z,30
2018-05-27T07:39:45.752Z,30
2018-05-27T07:40:06.011Z,30
2018-05-27T07:40:26.231Z,30
2018-05-27T07:40:46.522Z,30
2018-05-27T07:41:06.659Z,30
2018-05-27T07:41:26.908Z,30
2018-05-27T07:41:47.126Z,30
2018-05-27T07:42:07.333Z,30
2018-05-27T07:42:27.529Z,30
2018-05-27T07:42:47.788Z,30
2018-05-27T07:43:08.423Z,30
2018-05-27T07:43:28.898Z,30
2018-05-27T07:43:49.453Z,30
2018-05-27T07:44:09.985Z,30
2018-05-27T07:44:30.491Z,30
2018-05-27T07:44:51.032Z,30
2018-05-27T07:45:11.529Z,30
2018-05-27T07:45:31.945Z,35
2018-05-27T07:45:52.367Z,35
2018-05-27T07:46:13.030Z,35
2018-05-27T07:46:33.549Z,35
2018-05-27T07:46:53.957Z,35
2018-05-27T07:47:14.472Z,35
2018-05-27T07:47:34.934Z,35
2018-05-27T07:47:55.484Z,35
2018-05-27T07:48:15.874Z,35
2018-05-27T07:48:36.279Z,35
2018-05-27T07:48:56.675Z,35
2018-05-27T07:49:17.128Z,35
2018-05-27T07:49:37.546Z,35
2018-05-27T07:49:58.077Z,35
2018-05-27T07:50:18.590Z,35
2018-05-27T07:50:39.060Z,35
2018-05-27T07:50:59.556Z,35
2018-05-27T07:51:20.115Z,35
2018-05-27T07:51:40.661Z,35
2018-05-27T07:52:01.213Z,35
2018-05-27T07:52:21.717Z,35
2018-05-27T07:52:42.293Z,35
2018-05-27T07:53:02.742Z,40
2018-05-27T07:53:23.172Z,40
2018-05-27T07:53:43.655Z,40
2018-05-27T07:54:04.143Z,40
2018-05-27T07:54:24.573Z,40
2018-05-27T07:54:45.054Z,45
2018-05-27T07:55:05.489Z,45
2018-05-27T07:55:25.902Z,45
2018-05-27T07:55:46.376Z,45
2018-05-27T07:56:06.798Z,45
2018-05-27T07:56:27.207Z,50
2018-05-27T07:56:47.811Z,50
2018-05-27T07:57:08.315Z,50
2018-05-27T07:57:28.787Z,50
2018-05-27T07:57:49.220Z,50
2018-05-27T07:58:09.658Z,50
2018-05-27T07:58:30.346Z,50
2018-05-27T07:58:50.663Z,50
2018-05-27T07:59:11.210Z,50
2018-05-27T07:59:31.634Z,50
2018-05-27T07:59:52.027Z,50
2018-05-27T08:00:12.526Z,50
2018-05-27T08:00:32.992Z,50
2018-05-27T08:00:53.469Z,50
2018-05-27T08:01:13.931Z,50
2018-05-27T08:01:34.437Z,50
2018-05-27T08:01:54.890Z,50
2018-05-27T08:02:15.311Z,50
2018-05-27T08:02:35.637Z,50
2018-05-27T08:02:56.134Z,50
2018-05-27T08:03:16.771Z,50
2018-05-27T08:03:37.300Z,45
2018-05-27T08:03:57.844Z,45
2018-05-27T08:04:18.354Z,45
2018-05-27T08:04:38.820Z,45
2018-05-27T08:04:59.403Z,45
2018-05-27T08:05:19.829Z,45
2018-05-27T08:05:40.287Z,40
2018-05-27T08:06:00.815Z,40
2018-05-27T08:06:21.321Z,40
2018-05-27T08:06:41.710Z,40
2018-05-27T08:07:02.120Z,40
2018-05-27T08:07:22.585Z,40
2018-05-27T08:07:43.136Z,40
2018-05-27T08:08:03.495Z,40
2018-05-27T08:08:23.947Z,40
2018-05-27T08:08:44.428Z,40
2018-05-27T08:09:04.888Z,40
2018-05-27T08:09:25.407Z,40
2018-05-27T08:09:45.834Z,40
2018-05-27T08:10:06.308Z,40
2018-05-27T08:10:26.783Z,35
2018-05-27T08:10:47.228Z,35
2018-05-27T08:11:07.658Z,35
2018-05-27T08:11:27.992Z,35
2018-05-27T08:11:48.431Z,35
2018-05-27T08:12:08.944Z,35
2018-05-27T08:12:29.285Z,35
2018-05-27T08:12:49.583Z,35
2018-05-27T08:13:09.904Z,40
2018-05-27T08:13:30.203Z,40
2018-05-27T08:13:50.604Z,35
2018-05-27T08:14:10.946Z,35
2018-05-27T08:14:31.374Z,35
2018-05-27T08:14:51.806Z,40
2018-05-27T08:15:12.137Z,40
2018-05-27T08:15:32.471Z,40
2018-05-27T08:15:52.859Z,40
2018-05-27T08:16:13.264Z,40
2018-05-27T08:16:33.693Z,40
2018-05-27T08:16:54.048Z,40
2018-05-27T08:17:14.450Z,40
2018-05-27T08:17:34.811Z,40
2018-05-27T08:17:55.235Z,45
2018-05-27T08:18:15.599Z,45
2018-05-27T08:18:36.072Z,45
2018-05-27T08:18:56.508Z,45
2018-05-27T08:19:16.899Z,45
2018-05-27T08:19:37.342Z,45
2018-05-27T08:19:58.056Z,45
2018-05-27T08:20:18.465Z,50
2018-05-27T08:20:38.989Z,50
2018-05-27T08:20:59.431Z,50
2018-05-27T08:21:19.830Z,50
2018-05-27T08:21:40.316Z,55
2018-05-27T08:22:00.655Z,55
2018-05-27T08:22:21.028Z,55
2018-05-27T08:22:41.476Z,55
2018-05-27T08:23:01.871Z,60
2018-05-27T08:23:22.233Z,60
2018-05-27T08:23:42.629Z,60
2018-05-27T08:24:03.081Z,60
2018-05-27T08:24:23.547Z,60
2018-05-27T08:24:44.224Z,60
2018-05-27T08:25:04.704Z,65
2018-05-27T08:25:25.032Z,65
2018-05-27T08:25:45.731Z,65
2018-05-27T08:26:06.085Z,65
2018-05-27T08:26:26.555Z,65
2018-05-27T08:26:47.041Z,65
2018-05-27T08:27:07.442Z,65
2018-05-27T08:27:27.934Z,70
2018-05-27T08:27:48.349Z,70
2018-05-27T08:28:08.788Z,70
2018-05-27T08:28:29.205Z,70
2018-05-27T08:28:49.637Z,70
2018-05-27T08:29:10.013Z,70
2018-05-27T08:29:30.427Z,70
2018-05-27T08:29:51.034Z,70
2018-05-27T08:30:11.431Z,70
2018-05-27T08:30:31.838Z,70
2018-05-27T08:30:52.321Z,70
2018-05-27T08:31:12.757Z,75
2018-05-27T08:31:33.254Z,70
2018-05-27T08:31:53.847Z,70
2018-05-27T08:32:14.285Z,70
2018-05-27T08:32:34.509Z,70
2018-05-27T08:32:54.972Z,70
2018-05-27T08:33:15.437Z,70
2018-05-27T08:33:35.861Z,70
2018-05-27T08:33:56.487Z,70
2018-05-27T08:34:16.967Z,70
2018-05-27T08:34:37.416Z,75
2018-05-27T08:34:57.909Z,80
2018-05-27T08:35:18.398Z,80
2018-05-27T08:35:38.791Z,75
2018-05-27T08:35:59.260Z,80
2018-05-27T08:36:19.772Z,80
2018-05-27T08:36:40.127Z,75
2018-05-27T08:37:00.556Z,80
2018-05-27T08:37:21.186Z,80
2018-05-27T08:37:41.741Z,80
2018-05-27T08:38:02.192Z,80
2018-05-27T08:38:22.603Z,80
2018-05-27T08:38:42.914Z,75
2018-05-27T08:39:03.399Z,80
2018-05-27T08:39:23.827Z,75
2018-05-27T08:39:44.325Z,70
2018-05-27T08:40:04.645Z,70
2018-05-27T08:40:25.213Z,75
2018-05-27T08:40:45.819Z,70
2018-05-27T08:41:06.357Z,70
2018-05-27T08:41:26.819Z,70
2018-05-27T08:41:47.219Z,70
2018-05-27T08:42:07.698Z,65
2018-05-27T08:42:28.035Z,65
2018-05-27T08:42:48.487Z,65
2018-05-27T08:43:09.057Z,65
2018-05-27T08:43:29.587Z,65
2018-05-27T08:43:50.068Z,65
2018-05-27T08:44:10.531Z,65
2018-05-27T08:44:31.070Z,65
2018-05-27T08:44:51.551Z,65
2018-05-27T08:45:12.107Z,70
2018-05-27T08:45:32.551Z,70
2018-05-27T08:45:52.914Z,70
2018-05-27T08:46:13.388Z,75
2018-05-27T08:46:33.937Z,75
2018-05-27T08:46:54.511Z,75
2018-05-27T08:47:15.066Z,70
2018-05-27T08:47:36.340Z,70
2018-05-27T08:47:56.983Z,65
2018-05-27T08:48:17.594Z,65
2018-05-27T08:48:38.286Z,65
2018-05-27T08:48:59.048Z,70
2018-05-27T08:49:19.784Z,65
2018-05-27T08:49:44.784Z,70
2018-05-27T08:50:05.378Z,70
2018-05-27T08:50:25.870Z,70
2018-05-27T08:50:46.424Z,70
2018-05-27T08:51:06.899Z,75
2018-05-27T08:51:27.347Z,75
2018-05-27T08:51:47.919Z,75
2018-05-27T08:52:08.458Z,80
2018-05-27T08:52:29.028Z,75
2018-05-27T08:52:49.507Z,80
2018-05-27T08:53:10.090Z,80
2018-05-27T08:53:30.780Z,80
2018-05-27T08:53:51.312Z,80
2018-05-27T08:54:11.780Z,80
2018-05-27T08:54:32.181Z,80
2018-05-27T08:54:52.627Z,80
2018-05-27T08:55:13.046Z,80
2018-05-27T08:55:33.521Z,80
2018-05-27T08:55:53.927Z,80
2018-05-27T08:56:14.310Z,80
2018-05-27T08:56:34.876Z,85
2018-05-27T08:56:55.525Z,85
2018-05-27T08:57:16.227Z,85
2018-05-27T08:57:37.081Z,85
2018-05-27T08:57:57.737Z,85
2018-05-27T08:58:18.331Z,90
2018-05-27T08:58:39.205Z,85
2018-05-27T08:59:00.157Z,85
2018-05-27T08:59:20.600Z,85
2018-05-27T08:59:41.212Z,85
2018-05-27T09:00:01.882Z,85
2018-05-27T09:00:22.504Z,85
2018-05-27T09:00:42.878Z,90
2018-05-27T09:01:03.393Z,80
2018-05-27T09:01:23.871Z,85
2018-05-27T09:01:44.345Z,90
2018-05-27T09:02:04.896Z,85
2018-05-27T09:02:25.405Z,85
2018-05-27T09:02:46.100Z,85
2018-05-27T09:03:06.574Z,80
2018-05-27T09:03:27.010Z,80
2018-05-27T09:03:47.551Z,75
2018-05-27T09:04:08.223Z,75
2018-05-27T09:04:28.793Z,75
2018-05-27T09:04:49.324Z,75
2018-05-27T09:05:09.816Z,75
2018-05-27T09:05:30.405Z,70
2018-05-27T09:05:50.834Z,70
2018-05-27T09:06:11.231Z,70
2018-05-27T09:06:31.786Z,70
2018-05-27T09:06:52.300Z,70
2018-05-27T09:07:12.740Z,70
2018-05-27T09:07:33.266Z,70
2018-05-27T09:07:53.972Z,65
2018-05-27T09:08:14.590Z,65
2018-05-27T09:08:35.013Z,65
2018-05-27T09:08:55.517Z,65
2018-05-27T09:09:15.929Z,65
2018-05-27T09:09:36.397Z,65
2018-05-27T09:09:57.219Z,65
2018-05-27T09:10:18.004Z,65
2018-05-27T09:10:38.541Z,65
2018-05-27T09:10:59.232Z,60
2018-05-27T09:11:19.897Z,65
2018-05-27T09:11:40.637Z,60
2018-05-27T09:12:01.273Z,60
2018-05-27T09:12:22.695Z,60
2018-05-27T09:12:43.343Z,60
2018-05-27T09:13:03.877Z,60
2018-05-27T09:13:24.611Z,60
2018-05-27T09:13:45.340Z,55
2018-05-27T09:14:06.205Z,55
2018-05-27T09:14:26.814Z,55
2018-05-27T09:14:47.365Z,55
2018-05-27T09:15:08.285Z,55
2018-05-27T09:15:28.837Z,55
2018-05-27T09:15:50.316Z,55
2018-05-27T09:16:10.822Z,55
2018-05-27T09:16:31.204Z,55
2018-05-27T09:16:51.796Z,55
2018-05-27T09:17:12.223Z,55
2018-05-27T09:17:32.859Z,55
2018-05-27T09:17:53.318Z,60
2018-05-27T09:18:14.014Z,55
2018-05-27T09:18:34.700Z,55
2018-05-27T09:18:55.450Z,50
2018-05-27T09:19:16.081Z,50
2018-05-27T09:19:36.560Z,50
2018-05-27T09:19:56.991Z,50
2018-05-27T09:20:17.494Z,50
2018-05-27T09:20:38.115Z,50
2018-05-27T09:20:58.601Z,50
2018-05-27T09:21:19.213Z,55
2018-05-27T09:21:39.775Z,50
2018-05-27T09:22:00.256Z,50
2018-05-27T09:22:20.866Z,50
2018-05-27T09:22:41.312Z,55
2018-05-27T09:23:01.749Z,50
2018-05-27T09:23:22.437Z,50
2018-05-27T09:23:42.986Z,50
2018-05-27T09:24:03.460Z,50
2018-05-27T09:24:24.002Z,50
2018-05-27T09:24:44.422Z,50
2018-05-27T09:25:05.112Z,50
2018-05-27T09:25:25.737Z,50
2018-05-27T09:25:46.421Z,50
2018-05-27T09:26:07.190Z,55
2018-05-27T09:26:27.677Z,50
2018-05-27T09:26:48.186Z,50
2018-05-27T09:27:08.888Z,50
2018-05-27T09:27:29.708Z,50
2018-05-27T09:27:50.208Z,50
2018-05-27T09:28:10.633Z,45
2018-05-27T09:28:31.198Z,50
2018-05-27T09:28:51.753Z,45
2018-05-27T09:29:12.287Z,45
2018-05-27T09:29:32.740Z,45
2018-05-27T09:29:53.366Z,45
2018-05-27T09:30:13.774Z,45
2018-05-27T09:30:34.164Z,45
2018-05-27T09:30:54.601Z,45
2018-05-27T09:31:15.006Z,45
2018-05-27T09:31:35.484Z,45
2018-05-27T09:31:56.141Z,45
2018-05-27T09:32:16.993Z,45
2018-05-27T09:32:37.509Z,45
2018-05-27T09:32:58.084Z,45
2018-05-27T09:33:18.610Z,45
2018-05-27T09:33:39.235Z,50
2018-05-27T09:33:59.780Z,45
2018-05-27T09:34:20.388Z,45
2018-05-27T09:34:40.988Z,40
2018-05-27T09:35:01.497Z,40
2018-05-27T09:35:22.173Z,40
2018-05-27T09:35:42.815Z,40
2018-05-27T09:36:03.580Z,45
2018-05-27T09:36:24.317Z,45
2018-05-27T09:36:45.260Z,45
2018-05-27T09:37:05.901Z,45
2018-05-27T09:37:26.450Z,45
2018-05-27T09:37:47.067Z,45
2018-05-27T09:38:07.776Z,45
2018-05-27T09:38:28.256Z,45
2018-05-27T09:38:48.957Z,50
2018-05-27T09:39:09.663Z,45
2018-05-27T09:39:30.458Z,45
2018-05-27T09:39:51.111Z,45
2018-05-27T09:40:11.847Z,45
2018-05-27T09:40:32.544Z,45
2018-05-27T09:40:53.131Z,45
2018-05-27T09:41:13.749Z,45
2018-05-27T09:41:34.427Z,45
2018-05-27T09:41:54.937Z,45
2018-05-27T09:42:15.809Z,50
2018-05-27T09:42:36.305Z,45
2018-05-27T09:42:56.886Z,50
2018-05-27T09:43:17.537Z,45
2018-05-27T09:43:38.449Z,50
2018-05-27T09:43:59.400Z,50
2018-05-27T09:44:20.138Z,45
2018-05-27T09:44:40.996Z,45
2018-05-27T09:45:01.439Z,55
2018-05-27T09:45:22.229Z,55
2018-05-27T09:45:43.008Z,50
2018-05-27T09:46:03.709Z,50
2018-05-27T09:46:24.347Z,50
2018-05-27T09:46:44.946Z,50
2018-05-27T09:47:05.483Z,50
2018-05-27T09:47:26.183Z,50
2018-05-27T09:47:46.612Z,50
2018-05-27T09:48:07.548Z,50
2018-05-27T09:48:28.074Z,50
2018-05-27T09:48:49.458Z,55
2018-05-27T09:49:10.056Z,55
2018-05-27T09:49:30.476Z,55
2018-05-27T09:49:50.929Z,50
2018-05-27T09:50:11.535Z,55
2018-05-27T09:50:32.019Z,50
2018-05-27T09:50:52.446Z,55
2018-05-27T09:51:12.941Z,55
2018-05-27T09:51:33.568Z,55
2018-05-27T09:51:53.932Z,55
2018-05-27T09:52:14.365Z,55
2018-05-27T09:52:34.933Z,55
2018-05-27T09:52:55.436Z,55
2018-05-27T09:53:16.091Z,55
2018-05-27T09:53:36.476Z,55
2018-05-27T09:53:57.044Z,55
2018-05-27T09:54:17.561Z,55
2018-05-27T09:54:38.115Z,55
2018-05-27T09:54:58.843Z,60
2018-05-27T09:55:19.484Z,60
2018-05-27T09:55:40.002Z,60
2018-05-27T09:56:00.838Z,60
2018-05-27T09:56:21.244Z,60
2018-05-27T09:56:41.588Z,60
2018-05-27T09:57:02.110Z,60
2018-05-27T09:57:23.384Z,60
2018-05-27T09:57:44.018Z,60
2018-05-27T09:58:04.765Z,60
2018-05-27T09:58:26.439Z,60
2018-05-27T09:58:47.067Z,60
2018-05-27T09:59:07.620Z,60
2018-05-27T09:59:28.146Z,60
2018-05-27T09:59:48.761Z,60
2018-05-27T10:00:09.286Z,60
2018-05-27T10:00:29.697Z,60
2018-05-27T10:00:50.186Z,60
2018-05-27T10:01:10.613Z,60
2018-05-27T10:01:31.909Z,60
2018-05-27T10:01:52.311Z,60
2018-05-27T10:02:12.789Z,60
2018-05-27T10:02:33.284Z,60
2018-05-27T10:02:53.911Z,60
2018-05-27T10:03:14.408Z,60
2018-05-27T10:03:34.836Z,60
2018-05-27T10:03:55.348Z,60
2018-05-27T10:04:15.857Z,60
2018-05-27T10:04:36.378Z,60
2018-05-27T10:04:56.982Z,60
2018-05-27T10:05:17.520Z,60
2018-05-27T10:05:38.085Z,60
2018-05-27T10:05:58.580Z,60
2018-05-27T10:06:19.132Z,60
2018-05-27T10:06:39.556Z,60
2018-05-27T10:07:00.081Z,60
2018-05-27T10:07:20.552Z,60
2018-05-27T10:07:40.958Z,60
2018-05-27T10:08:01.370Z,60
2018-05-27T10:08:21.828Z,60
2018-05-27T10:08:42.420Z,60
2018-05-27T10:09:02.936Z,60
2018-05-27T10:09:23.436Z,60
2018-05-27T10:09:43.935Z,60
2018-05-27T10:10:04.469Z,60
2018-05-27T10:10:24.949Z,60
2018-05-27T10:10:45.413Z,60
2018-05-27T10:11:05.786Z,60
2018-05-27T10:11:26.339Z,60
2018-05-27T10:11:46.861Z,60
2018-05-27T10:12:07.330Z,60
2018-05-27T10:12:27.845Z,60
2018-05-27T10:12:48.364Z,60
2018-05-27T10:13:08.854Z,60
2018-05-27T10:13:29.243Z,60
2018-05-27T10:13:49.747Z,60
2018-05-27T10:14:10.415Z,60
2018-05-27T10:14:30.986Z,60
2018-05-27T10:14:51.360Z,60
2018-05-27T10:15:11.847Z,60
2018-05-27T10:15:32.209Z,60
2018-05-27T10:15:52.671Z,60
2018-05-27T10:16:13.250Z,60
2018-05-27T10:16:33.824Z,60
2018-05-27T10:16:54.284Z,60
2018-05-27T10:17:14.968Z,60
2018-05-27T10:17:36.498Z,60
2018-05-27T10:17:57.153Z,60
2018-05-27T10:18:17.797Z,60
2018-05-27T10:18:38.557Z,60
2018-05-27T10:18:59.110Z,60
2018-05-27T10:19:19.573Z,60
2018-05-27T10:19:40.267Z,60
2018-05-27T10:20:00.947Z,60
2018-05-27T10:20:21.356Z,60
2018-05-27T10:20:41.847Z,60
2018-05-27T10:21:02.355Z,60
2018-05-27T10:21:22.813Z,60
2018-05-27T10:21:43.297Z,60
2018-05-27T10:22:03.621Z,55
2018-05-27T10:22:24.099Z,55
2018-05-27T10:22:44.631Z,55
2018-05-27T10:23:05.167Z,55
2018-05-27T10:23:45.299Z,55
2018-05-27T10:24:06.041Z,55
2018-05-27T10:24:26.700Z,55
2018-05-27T10:24:47.208Z,55
2018-05-27T10:25:07.941Z,55
2018-05-27T10:25:29.010Z,55
2018-05-27T10:25:50.373Z,55
2018-05-27T10:26:11.051Z,55
2018-05-27T10:26:31.518Z,55
2018-05-27T10:26:51.834Z,55
2018-05-27T10:27:12.453Z,55
2018-05-27T10:27:33.360Z,55
2018-05-27T10:27:53.871Z,55
2018-05-27T10:28:14.432Z,55
2018-05-27T10:28:35.076Z,55
2018-05-27T10:28:55.722Z,55
2018-05-27T10:29:16.427Z,55
2018-05-27T10:29:37.441Z,55
2018-05-27T10:29:57.891Z,55
2018-05-27T10:30:18.483Z,55
2018-05-27T10:30:39.130Z,55
2018-05-27T10:31:00.212Z,55
2018-05-27T10:31:21.161Z,55
2018-05-27T10:31:41.995Z,55
2018-05-27T10:32:02.561Z,55
2018-05-27T10:32:23.252Z,55
2018-05-27T10:32:43.840Z,55
2018-05-27T10:33:04.213Z,55
2018-05-27T10:33:25.791Z,55
2018-05-27T10:34:50.120Z,55
2018-05-27T10:35:12.040Z,55
2018-05-27T10:35:33.142Z,55
2018-05-27T10:35:53.569Z,55
2018-05-27T10:36:14.070Z,55
2018-05-27T10:36:35.453Z,55
2018-05-27T10:36:56.333Z,55
2018-05-27T10:37:17.146Z,55
2018-05-27T10:37:38.556Z,55
2018-05-27T10:37:59.130Z,50
2018-05-27T10:38:19.701Z,50
2018-05-27T10:38:40.511Z,50
2018-05-27T10:39:01.265Z,55
2018-05-27T10:39:21.805Z,55
2018-05-27T10:39:42.675Z,55
2018-05-27T10:40:03.326Z,55
2018-05-27T10:40:24.442Z,55
2018-05-27T10:40:45.081Z,55
2018-05-27T10:41:05.561Z,55
2018-05-27T10:41:26.170Z,55
2018-05-27T10:41:46.783Z,55
2018-05-27T10:42:07.387Z,55
2018-05-27T10:42:28.078Z,55
2018-05-27T10:42:48.804Z,55
2018-05-27T10:43:09.418Z,55
2018-05-27T10:43:29.932Z,55
2018-05-27T10:43:50.356Z,55
2018-05-27T10:44:11.020Z,55
2018-05-27T10:44:31.535Z,55
2018-05-27T10:50:47.211Z,55
2018-05-27T10:51:12.695Z,55
2018-05-27T10:51:33.387Z,50
2018-05-27T10:51:54.953Z,50
2018-05-27T10:52:16.614Z,50
2018-05-27T10:52:38.881Z,50
2018-05-27T10:52:59.901Z,50
2018-05-27T10:53:20.453Z,50
2018-05-27T10:53:40.904Z,50
2018-05-27T10:54:01.553Z,50
2018-05-27T10:54:22.390Z,50
2018-05-27T10:54:43.868Z,50
2018-05-27T11:06:33.904Z,50
2018-05-27T11:06:54.895Z,50
2018-05-27T11:07:15.871Z,50